createdAt,value
2018-08-07T00:00:26.755Z,44.90
2018-08-07T00:02:54.422Z,45.90
2018-08-07T00:05:21.988Z,46.60
2018-08-07T00:07:53.031Z,46.60
2018-08-07T00:12:50.389Z,48.30
2018-08-07T00:15:18.370Z,48.80
2018-08-07T00:17:45.966Z,48.90
2018-08-07T00:20:14.721Z,49.50
2018-08-07T00:22:43.074Z,49.40
2018-08-07T00:25:11.063Z,50.00
2018-08-07T00:27:39.370Z,50.40
2018-08-07T00:30:08.642Z,49.80
2018-08-07T00:32:36.839Z,50.40
2018-08-07T00:35:04.990Z,50.20
2018-08-07T00:37:32.540Z,51.00
2018-08-07T00:40:00.060Z,50.70
2018-08-07T00:42:27.610Z,50.80
2018-08-07T00:44:55.110Z,52.00
2018-08-07T00:47:22.684Z,51.20
2018-08-07T00:49:50.269Z,50.10
2018-08-07T00:52:17.841Z,50.40
2018-08-07T00:54:45.604Z,50.70
2018-08-07T00:57:13.180Z,50.80
2018-08-07T00:59:40.741Z,50.20
2018-08-07T01:02:08.279Z,49.70
2018-08-07T01:04:35.779Z,51.10
2018-08-07T01:07:03.437Z,51.40
2018-08-07T01:09:30.943Z,51.60
2018-08-07T01:11:58.435Z,51.00
2018-08-07T01:14:25.973Z,51.60
2018-08-07T01:19:20.992Z,50.60
2018-08-07T01:21:48.553Z,51.60
2018-08-07T01:24:16.074Z,52.00
2018-08-07T01:26:43.611Z,52.10
2018-08-07T01:29:11.234Z,52.30
2018-08-07T01:31:38.744Z,52.00
2018-08-07T01:34:06.284Z,52.30
2018-08-07T01:36:33.785Z,51.20
2018-08-07T01:39:01.322Z,51.40
2018-08-07T01:41:28.835Z,51.90
2018-08-07T01:43:56.373Z,52.50
2018-08-07T01:46:23.934Z,52.50
2018-08-07T01:48:51.496Z,52.50
2018-08-07T01:51:19.015Z,52.50
2018-08-07T01:53:46.509Z,52.90
2018-08-07T01:56:14.009Z,52.10
2018-08-07T01:58:41.540Z,51.90
2018-08-07T02:01:09.051Z,51.30
2018-08-07T02:03:36.540Z,52.00
2018-08-07T02:06:04.065Z,52.50
2018-08-07T02:08:31.662Z,52.30
2018-08-07T02:10:59.124Z,52.60
2018-08-07T02:13:26.681Z,52.90
2018-08-07T02:15:54.209Z,52.90
2018-08-07T02:18:21.754Z,52.60
2018-08-07T02:20:49.293Z,52.70
2018-08-07T02:25:44.227Z,52.80
2018-08-07T02:28:11.777Z,53.70
2018-08-07T02:30:39.301Z,53.50
2018-08-07T02:33:06.791Z,53.20
2018-08-07T02:35:34.452Z,54.70
2018-08-07T02:38:01.988Z,54.80
2018-08-07T02:40:29.519Z,55.00
2018-08-07T02:42:57.047Z,54.10
2018-08-07T02:45:24.666Z,54.00
2018-08-07T02:47:52.215Z,54.50
2018-08-07T02:50:20.736Z,54.20
2018-08-07T02:52:48.417Z,54.70
2018-08-07T02:55:15.986Z,54.60
2018-08-07T02:57:44.124Z,54.70
2018-08-07T03:00:13.548Z,55.20
2018-08-07T03:02:41.099Z,56.20
2018-08-07T03:05:09.289Z,55.80
2018-08-07T03:07:37.025Z,56.00
2018-08-07T03:10:05.162Z,56.90
2018-08-07T03:12:32.696Z,56.20
2018-08-07T03:15:00.334Z,55.60
2018-08-07T03:17:27.839Z,55.40
2018-08-07T03:19:55.352Z,55.40
2018-08-07T03:22:22.853Z,54.80
2018-08-07T03:24:50.415Z,55.00
2018-08-07T03:27:17.988Z,54.60
2018-08-07T03:29:45.545Z,55.10
2018-08-07T03:32:13.079Z,56.00
2018-08-07T03:34:40.602Z,57.10
2018-08-07T03:37:08.173Z,57.00
2018-08-07T03:39:35.864Z,56.70
2018-08-07T03:42:03.563Z,56.00
2018-08-07T03:44:31.065Z,55.90
2018-08-07T03:46:58.558Z,56.50
2018-08-07T03:49:26.292Z,56.70
2018-08-07T03:51:53.820Z,56.60
2018-08-07T03:54:21.382Z,56.60
2018-08-07T03:56:48.939Z,56.10
2018-08-07T03:59:16.441Z,55.10
2018-08-07T04:01:43.986Z,55.30
2018-08-07T04:04:11.502Z,54.70
2018-08-07T04:06:39.036Z,55.00
2018-08-07T04:09:14.442Z,56.10
2018-08-07T04:11:42.259Z,57.50
2018-08-07T04:16:42.990Z,56.90
2018-08-07T04:19:11.262Z,57.20
2018-08-07T04:21:38.792Z,57.90
2018-08-07T04:24:06.382Z,59.10
2018-08-07T04:26:33.915Z,59.70
2018-08-07T04:29:01.745Z,59.50
2018-08-07T04:31:29.244Z,59.20
2018-08-07T04:36:24.188Z,58.90
2018-08-07T04:38:51.693Z,58.70
2018-08-07T04:41:19.178Z,59.30
2018-08-07T04:43:46.684Z,60.20
2018-08-07T04:46:14.216Z,59.60
2018-08-07T04:48:41.758Z,60.00
2018-08-07T04:51:09.260Z,60.30
2018-08-07T04:53:36.757Z,60.50
2018-08-07T04:56:04.326Z,60.50
2018-08-07T04:58:31.852Z,61.00
2018-08-07T05:00:59.389Z,60.90
2018-08-07T05:03:26.910Z,60.80
2018-08-07T05:05:54.463Z,61.20
2018-08-07T05:08:22.258Z,60.60
2018-08-07T05:10:49.800Z,61.20
2018-08-07T05:13:17.320Z,61.70
2018-08-07T05:15:44.833Z,62.00
2018-08-07T05:18:12.374Z,61.70
2018-08-07T05:23:14.041Z,61.50
2018-08-07T05:25:41.566Z,61.30
2018-08-07T05:28:09.079Z,61.90
2018-08-07T05:30:36.673Z,61.90
2018-08-07T05:33:04.257Z,62.00
2018-08-07T05:35:31.804Z,62.10
2018-08-07T05:37:59.300Z,62.40
2018-08-07T05:40:26.854Z,63.10
2018-08-07T05:42:54.522Z,63.10
2018-08-07T05:45:21.985Z,62.80
2018-08-07T05:47:49.498Z,61.60
2018-08-07T05:50:17.231Z,62.10
2018-08-07T05:52:44.705Z,62.90
2018-08-07T05:55:12.576Z,63.40
2018-08-07T05:57:40.155Z,63.80
2018-08-07T06:00:11.909Z,64.00
2018-08-07T06:02:39.448Z,64.10
2018-08-07T06:05:07.131Z,64.00
2018-08-07T06:07:34.713Z,63.00
2018-08-07T06:10:02.537Z,62.00
2018-08-07T06:12:30.131Z,62.10
2018-08-07T06:14:57.672Z,62.20
2018-08-07T06:17:25.266Z,61.30
2018-08-07T06:19:52.776Z,60.60
2018-08-07T06:22:20.292Z,61.20
2018-08-07T06:24:47.818Z,62.40
2018-08-07T06:27:15.376Z,58.80
2018-08-07T06:29:42.940Z,59.30
2018-08-07T06:32:10.480Z,59.60
2018-08-07T06:34:38.083Z,60.40
2018-08-07T06:37:05.629Z,60.90
2018-08-07T06:39:33.301Z,60.70
2018-08-07T06:42:00.843Z,60.10
2018-08-07T06:44:28.448Z,61.10
2018-08-07T06:46:56.325Z,61.20
2018-08-07T06:49:23.882Z,60.80
2018-08-07T06:51:51.880Z,58.70
2018-08-07T06:54:19.646Z,59.50
2018-08-07T06:56:47.246Z,60.20
2018-08-07T06:59:14.916Z,58.80
2018-08-07T07:01:42.620Z,58.80
2018-08-07T07:06:37.930Z,58.70
2018-08-07T07:09:08.600Z,59.50
2018-08-07T07:11:36.160Z,59.70
2018-08-07T07:14:04.231Z,60.40
2018-08-07T07:16:31.876Z,60.50
2018-08-07T07:18:59.473Z,59.20
2018-08-07T07:21:27.054Z,59.30
2018-08-07T07:23:54.687Z,59.10
2018-08-07T07:26:22.325Z,59.40
2018-08-07T07:31:17.491Z,58.20
2018-08-07T07:33:45.125Z,58.30
2018-08-07T07:36:12.690Z,57.10
2018-08-07T07:38:40.279Z,57.00
2018-08-07T07:41:08.004Z,54.50
2018-08-07T07:43:35.554Z,55.00
2018-08-07T07:46:03.059Z,55.60
2018-08-07T07:48:30.845Z,54.90
2018-08-07T07:50:58.381Z,55.40
2018-08-07T07:53:25.906Z,54.30
2018-08-07T07:58:21.142Z,54.10
2018-08-07T08:00:48.739Z,53.80
2018-08-07T08:03:16.363Z,53.70
2018-08-07T08:05:44.006Z,52.40
2018-08-07T08:08:11.734Z,52.00
2018-08-07T08:10:39.352Z,51.60
2018-08-07T08:13:06.865Z,50.70
2018-08-07T08:15:34.532Z,50.60
2018-08-07T08:18:02.224Z,50.60
2018-08-07T08:20:29.898Z,50.00
2018-08-07T08:22:57.499Z,50.90
2018-08-07T08:25:25.236Z,51.00
2018-08-07T08:27:52.897Z,50.20
2018-08-07T08:30:20.546Z,49.50
2018-08-07T08:32:48.212Z,49.30
2018-08-07T08:35:16.902Z,48.60
2018-08-07T08:37:44.873Z,48.70
2018-08-07T08:40:17.034Z,48.50
2018-08-07T08:45:14.901Z,49.10
2018-08-07T08:50:12.900Z,49.50
2018-08-07T08:52:41.425Z,49.00
2018-08-07T08:55:09.775Z,48.70
2018-08-07T08:57:38.151Z,49.10
2018-08-07T09:00:10.329Z,48.20
2018-08-07T09:02:37.911Z,47.60
2018-08-07T09:05:07.164Z,47.10
2018-08-07T09:07:34.890Z,47.60
2018-08-07T09:10:02.506Z,47.20
2018-08-07T09:12:30.041Z,46.10
2018-08-07T09:14:57.685Z,45.90
2018-08-07T09:17:25.363Z,45.30
2018-08-07T09:19:52.915Z,45.10
2018-08-07T09:22:20.532Z,44.80
2018-08-07T09:24:48.159Z,43.70
2018-08-07T09:29:43.308Z,43.40
2018-08-07T09:32:10.920Z,42.20
2018-08-07T09:34:38.443Z,42.50
2018-08-07T09:37:06.029Z,42.30
2018-08-07T09:39:33.587Z,41.80
2018-08-07T09:42:01.119Z,42.50
2018-08-07T09:44:28.764Z,42.40
2018-08-07T09:46:56.326Z,41.60
2018-08-07T09:49:23.819Z,40.80
2018-08-07T09:51:51.363Z,40.90
2018-08-07T09:54:18.936Z,40.00
2018-08-07T09:56:46.902Z,40.00
2018-08-07T09:59:14.571Z,38.60
2018-08-07T10:01:47.800Z,36.90
2018-08-07T10:04:15.366Z,36.50
2018-08-07T10:06:42.951Z,35.40
2018-08-07T10:11:38.381Z,33.90
2018-08-07T10:14:06.146Z,32.90
2018-08-07T10:16:33.768Z,32.70
2018-08-07T10:19:01.308Z,31.80
2018-08-07T10:21:28.954Z,31.60
2018-08-07T10:23:56.524Z,31.20
2018-08-07T10:26:24.101Z,30.60
2018-08-07T10:28:51.771Z,30.30
2018-08-07T10:31:19.552Z,29.40
2018-08-07T10:33:47.392Z,29.70
2018-08-07T10:36:14.886Z,29.00
2018-08-07T10:38:42.645Z,29.40
2018-08-07T10:41:10.339Z,30.10
2018-08-07T10:43:37.997Z,28.80
2018-08-07T10:46:05.568Z,29.10
2018-08-07T10:48:33.104Z,29.40
2018-08-07T10:51:00.757Z,30.00
2018-08-07T10:53:28.590Z,30.10
2018-08-07T10:55:56.260Z,30.30
2018-08-07T10:58:23.931Z,29.60
2018-08-07T11:00:51.567Z,30.20
2018-08-07T11:03:19.528Z,30.00
2018-08-07T11:05:47.096Z,29.10
2018-08-07T11:08:14.677Z,29.40
2018-08-07T11:10:42.348Z,29.10
2018-08-07T11:13:09.940Z,29.10
2018-08-07T11:15:37.507Z,28.60
2018-08-07T11:18:05.179Z,29.00
2018-08-07T11:20:32.742Z,28.80
2018-08-07T11:23:01.402Z,28.40
2018-08-07T11:25:29.920Z,28.40
2018-08-07T11:27:57.584Z,28.80
2018-08-07T11:30:26.270Z,27.90
2018-08-07T11:32:54.951Z,28.60
2018-08-07T11:35:23.433Z,27.70
2018-08-07T11:37:56.373Z,28.00
2018-08-07T11:40:25.852Z,27.60
2018-08-07T11:42:55.116Z,28.60
2018-08-07T11:45:27.215Z,28.30
2018-08-07T11:48:00.546Z,28.00
2018-08-07T11:50:32.069Z,28.30
2018-08-07T11:53:01.691Z,28.00
2018-08-07T11:55:31.471Z,27.90
2018-08-07T11:58:01.459Z,28.30
2018-08-07T12:00:39.353Z,29.10
2018-08-07T12:05:40.893Z,30.00
2018-08-07T12:08:08.996Z,31.60
2018-08-07T12:10:38.559Z,32.80
2018-08-07T12:13:08.461Z,33.90
2018-08-07T12:15:38.409Z,33.00
2018-08-07T12:18:09.370Z,32.20
2018-08-07T12:20:39.211Z,32.40
2018-08-07T12:23:09.272Z,33.40
2018-08-07T12:25:39.064Z,31.50
2018-08-07T12:28:10.563Z,31.30
2018-08-07T12:30:42.497Z,31.40
2018-08-07T12:33:13.658Z,29.90
2018-08-07T12:35:44.560Z,29.70
2018-08-07T12:38:14.049Z,29.90
2018-08-07T12:40:44.821Z,30.00
2018-08-07T12:43:15.782Z,31.40
2018-08-07T12:45:47.988Z,32.10
2018-08-07T12:48:17.446Z,33.70
2018-08-07T12:50:46.623Z,35.10
2018-08-07T12:53:16.538Z,35.80
2018-08-07T12:55:46.341Z,36.50
2018-08-07T12:58:18.234Z,41.90
2018-08-07T13:00:47.618Z,45.00
2018-08-07T13:03:16.294Z,47.10
2018-08-07T13:05:45.862Z,52.30
2018-08-07T13:08:17.736Z,53.40
2018-08-07T13:10:45.377Z,57.80
2018-08-07T13:13:17.779Z,61.80
2018-08-07T13:15:47.592Z,66.80
2018-08-07T13:18:19.608Z,66.40
2018-08-07T13:20:51.851Z,67.60
2018-08-07T13:23:25.041Z,70.20
2018-08-07T13:25:52.734Z,69.60
2018-08-07T13:28:20.258Z,72.20
2018-08-07T13:30:48.183Z,77.10
2018-08-07T13:33:15.873Z,79.00
2018-08-07T13:35:43.438Z,80.10
2018-08-07T13:40:39.720Z,78.90
2018-08-07T13:43:07.293Z,83.10
2018-08-07T13:45:35.038Z,88.30
2018-08-07T13:48:02.983Z,89.20
2018-08-07T13:50:31.097Z,90.80
2018-08-07T13:52:58.706Z,90.50
2018-08-07T13:55:26.367Z,88.10
2018-08-07T13:57:54.209Z,88.50
2018-08-07T14:00:26.620Z,90.00
2018-08-07T14:02:54.790Z,90.00
2018-08-07T14:05:23.561Z,86.90
2018-08-07T14:07:54.897Z,75.60
2018-08-07T14:10:24.610Z,73.90
2018-08-07T14:12:52.288Z,70.70
2018-08-07T14:15:22.599Z,71.30
2018-08-07T14:17:53.507Z,73.20
2018-08-07T14:20:23.267Z,70.90
2018-08-07T14:22:50.822Z,72.90
2018-08-07T14:25:22.670Z,76.60
2018-08-07T14:27:54.105Z,79.20
2018-08-07T14:30:24.480Z,78.90
2018-08-07T14:32:53.187Z,80.30
2018-08-07T14:35:22.057Z,81.10
2018-08-07T14:37:53.175Z,80.70
2018-08-07T14:40:26.624Z,80.40
2018-08-07T14:42:56.791Z,80.40
2018-08-07T14:45:31.337Z,75.00
2018-08-07T14:48:02.607Z,78.80
2018-08-07T14:50:34.278Z,81.50
2018-08-07T14:53:04.230Z,83.00
2018-08-07T14:55:34.537Z,84.60
2018-08-07T14:58:02.828Z,85.50
2018-08-07T15:00:32.358Z,86.00
2018-08-07T15:03:02.949Z,83.50
2018-08-07T15:05:30.693Z,74.20
2018-08-07T15:07:59.655Z,69.40
2018-08-07T15:10:30.657Z,65.20
2018-08-07T15:13:00.692Z,61.70
2018-08-07T15:15:30.346Z,57.70
2018-08-07T15:18:00.634Z,58.10
2018-08-07T15:20:32.412Z,55.70
2018-08-07T15:23:06.906Z,55.10
2018-08-07T15:25:34.740Z,57.90
2018-08-07T15:28:02.560Z,55.00
2018-08-07T15:30:32.590Z,51.80
2018-08-07T15:33:08.783Z,48.50
2018-08-07T15:35:44.052Z,46.90
2018-08-07T15:38:15.171Z,46.10
2018-08-07T15:40:44.003Z,46.30
2018-08-07T15:43:13.874Z,48.40
2018-08-07T15:45:44.734Z,49.80
2018-08-07T15:48:14.135Z,49.30
2018-08-07T15:50:51.815Z,46.30
2018-08-07T15:53:19.721Z,45.90
2018-08-07T15:55:49.362Z,47.30
2018-08-07T15:58:17.112Z,47.60
2018-08-07T16:00:46.844Z,46.30
2018-08-07T16:03:16.481Z,47.00
2018-08-07T16:05:50.212Z,47.10
2018-08-07T16:08:21.364Z,45.80
2018-08-07T16:10:50.121Z,46.90
2018-08-07T16:13:20.011Z,44.70
2018-08-07T16:15:50.179Z,46.10
2018-08-07T16:18:18.781Z,43.60
2018-08-07T16:20:47.683Z,43.60
2018-08-07T16:23:15.297Z,43.70
2018-08-07T16:25:44.747Z,42.70
2018-08-07T16:28:20.372Z,43.40
2018-08-07T16:30:48.218Z,43.80
2018-08-07T16:33:18.275Z,43.10
2018-08-07T16:35:49.002Z,43.40
2018-08-07T16:38:17.949Z,42.60
2018-08-07T16:40:45.872Z,44.00
2018-08-07T16:43:15.404Z,42.80
2018-08-07T16:45:48.129Z,43.20
2018-08-07T16:48:18.335Z,42.00
2018-08-07T16:50:47.035Z,42.50
2018-08-07T16:53:15.738Z,43.50
2018-08-07T16:55:44.565Z,43.90
2018-08-07T16:58:14.047Z,43.70
2018-08-07T17:00:41.786Z,43.60
2018-08-07T17:03:11.530Z,43.90
2018-08-07T17:05:43.447Z,42.80
2018-08-07T17:10:40.605Z,45.00
2018-08-07T17:13:10.473Z,44.90
2018-08-07T17:15:42.604Z,44.70
2018-08-07T17:18:17.654Z,45.10
2018-08-07T17:20:46.227Z,46.70
2018-08-07T17:23:15.532Z,46.80
2018-08-07T17:25:45.369Z,46.30
2018-08-07T17:28:15.357Z,45.90
2018-08-07T17:30:45.013Z,45.60
2018-08-07T17:33:15.448Z,45.80
2018-08-07T17:38:12.068Z,44.90
2018-08-07T17:40:42.086Z,45.80
2018-08-07T17:43:10.587Z,45.80
2018-08-07T17:45:42.161Z,44.90
2018-08-07T17:48:12.119Z,45.20
2018-08-07T17:50:44.376Z,44.80
2018-08-07T17:53:12.108Z,45.40
2018-08-07T17:55:41.242Z,45.00
2018-08-07T17:58:09.155Z,44.40
2018-08-07T18:01:07.953Z,44.60
2018-08-07T18:03:39.226Z,45.20
2018-08-07T18:08:36.841Z,45.40
2018-08-07T18:11:08.114Z,45.60
2018-08-07T18:13:38.100Z,46.50
2018-08-07T18:16:12.552Z,46.40
2018-08-07T18:18:42.857Z,46.40
2018-08-07T18:21:14.418Z,46.90
2018-08-07T18:23:42.208Z,47.20
2018-08-07T18:26:13.124Z,47.20
2018-08-07T18:28:41.112Z,48.20
2018-08-07T18:31:13.352Z,49.00
2018-08-07T18:33:45.422Z,49.90
2018-08-07T18:36:16.226Z,50.20
2018-08-07T18:38:47.941Z,51.00
2018-08-07T18:41:17.910Z,51.90
2018-08-07T18:46:14.210Z,53.00
2018-08-07T18:48:42.440Z,52.40
2018-08-07T18:51:12.251Z,52.20
2018-08-07T18:59:11.257Z,52.40
2018-08-07T19:01:38.560Z,51.90
2018-08-07T19:04:05.753Z,52.70
2018-08-07T19:06:33.043Z,54.00
2018-08-07T19:09:00.257Z,54.10
2018-08-07T19:11:27.605Z,56.00
2018-08-07T19:13:54.826Z,55.90
2018-08-07T19:16:22.025Z,57.90
2018-08-07T19:18:49.308Z,57.10
2018-08-07T19:21:16.552Z,59.00
2018-08-07T19:23:43.856Z,57.20
2018-08-07T19:26:11.058Z,56.80
2018-08-07T19:28:38.298Z,57.10
2018-08-07T19:31:05.554Z,58.20
2018-08-07T19:33:32.754Z,57.90
2018-08-07T19:35:59.987Z,56.90
2018-08-07T19:38:27.233Z,57.30
2018-08-07T19:43:21.720Z,57.60
2018-08-07T19:45:49.025Z,57.50
2018-08-07T19:48:16.201Z,57.40
2018-08-07T19:50:43.404Z,57.70
2018-08-07T19:53:10.630Z,57.80
2018-08-07T19:55:37.876Z,56.80
2018-08-07T19:58:05.025Z,56.60
2018-08-07T20:00:32.202Z,56.60
2018-08-07T20:02:59.770Z,57.90
2018-08-07T20:05:27.077Z,57.90
2018-08-07T20:07:55.265Z,57.40
2018-08-07T20:10:22.801Z,57.70
2018-08-07T20:12:50.177Z,58.80
2018-08-07T20:15:20.309Z,57.50
2018-08-07T20:17:47.953Z,57.30
2018-08-07T20:20:15.198Z,58.40
2018-08-07T20:22:42.493Z,57.90
2018-08-07T20:25:10.224Z,58.70
2018-08-07T20:27:37.476Z,57.80
2018-08-07T20:30:07.330Z,58.60
2018-08-07T20:32:34.558Z,57.70
2018-08-07T20:37:29.018Z,57.90
2018-08-07T20:39:56.226Z,58.60
2018-08-07T20:42:23.441Z,59.90
2018-08-07T20:44:50.629Z,60.20
2018-08-07T20:47:17.790Z,60.00
2018-08-07T20:49:45.061Z,57.90
2018-08-07T20:52:12.320Z,56.50
2018-08-07T20:54:39.514Z,56.20
2018-08-07T20:57:06.950Z,56.30
2018-08-07T20:59:34.273Z,57.90
2018-08-07T21:02:01.457Z,58.80
2018-08-07T21:04:28.672Z,60.30
2018-08-07T21:06:55.927Z,58.80
2018-08-07T21:09:23.144Z,58.90
2018-08-07T21:11:50.356Z,59.60
2018-08-07T21:14:17.557Z,60.30
2018-08-07T21:16:44.816Z,59.30
2018-08-07T21:19:12.149Z,60.20
2018-08-07T21:21:39.422Z,57.70
2018-08-07T21:24:06.617Z,56.30
2018-08-07T21:26:34.085Z,56.70
2018-08-07T21:29:01.291Z,54.40
2018-08-07T21:31:28.499Z,54.10
2018-08-07T21:33:55.773Z,54.00
2018-08-07T21:36:22.956Z,53.30
2018-08-07T21:38:50.181Z,55.00
2018-08-07T21:41:17.386Z,56.30
2018-08-07T21:43:44.557Z,56.80
2018-08-07T21:46:11.808Z,57.00
2018-08-07T21:48:39.087Z,57.60
2018-08-07T21:51:06.333Z,57.10
2018-08-07T21:53:33.514Z,56.00
2018-08-07T21:56:00.721Z,56.00
2018-08-07T21:58:27.994Z,56.50
2018-08-07T22:00:55.197Z,57.50
2018-08-07T22:03:22.405Z,57.70
2018-08-07T22:05:49.959Z,57.60
2018-08-07T22:08:17.186Z,57.00
2018-08-07T22:10:44.492Z,57.40
2018-08-07T22:13:11.641Z,57.50
2018-08-07T22:15:38.869Z,56.90
2018-08-07T22:18:07.505Z,56.10
2018-08-07T22:20:34.725Z,56.80
2018-08-07T22:23:01.910Z,56.30
2018-08-07T22:25:29.264Z,55.60
2018-08-07T22:27:56.489Z,55.20
2018-08-07T22:30:23.705Z,54.90
2018-08-07T22:32:50.999Z,54.20
2018-08-07T22:35:18.203Z,54.00
2018-08-07T22:37:45.476Z,54.30
2018-08-07T22:40:13.409Z,53.90
2018-08-07T22:42:40.621Z,53.70
2018-08-07T22:45:09.657Z,53.30
2018-08-07T22:47:37.196Z,53.30
2018-08-07T22:50:05.208Z,53.30
2018-08-07T23:04:02.925Z,53.30
2018-08-07T23:06:30.467Z,52.60
2018-08-07T23:08:57.971Z,52.90
2018-08-07T23:11:25.488Z,53.00
2018-08-07T23:13:52.982Z,53.40
2018-08-07T23:16:22.261Z,54.10
2018-08-07T23:18:49.780Z,54.00
2018-08-07T23:21:17.390Z,53.80
2018-08-07T23:23:44.854Z,53.50
2018-08-07T23:26:12.316Z,53.90
2018-08-07T23:28:39.821Z,54.10
2018-08-07T23:31:07.375Z,54.00
2018-08-07T23:33:34.855Z,54.10
2018-08-07T23:36:02.615Z,56.60
2018-08-07T23:38:30.121Z,58.10
2018-08-07T23:40:57.694Z,57.00
2018-08-07T23:43:25.194Z,57.60
2018-08-07T23:45:52.681Z,58.80
2018-08-07T23:48:20.178Z,58.50
2018-08-07T23:50:47.687Z,57.80
2018-08-07T23:53:15.173Z,57.80
2018-08-07T23:55:42.714Z,57.70
2018-08-07T23:58:10.272Z,57.60
